createdAt,value
2022-11-12T00:01:08.937Z,37.13
2022-11-12T00:03:36.442Z,40.05
2022-11-12T00:06:03.997Z,40.47
2022-11-12T00:08:31.362Z,38.22
2022-11-12T00:10:58.767Z,35.20
2022-11-12T00:13:26.157Z,36.75
2022-11-12T00:15:53.545Z,32.78
2022-11-12T00:18:20.958Z,34.25
2022-11-12T00:20:48.479Z,35.55
2022-11-12T00:23:16.046Z,42.30
2022-11-12T00:25:43.453Z,35.15
2022-11-12T00:28:11.370Z,34.10
2022-11-12T00:30:40.443Z,34.90
2022-11-12T00:33:08.279Z,29.02
2022-11-12T00:35:36.186Z,35.42
2022-11-12T00:38:03.800Z,26.83
2022-11-12T00:40:31.205Z,31.58
2022-11-12T00:42:58.568Z,33.85
2022-11-12T00:45:26.264Z,32.55
2022-11-12T00:47:57.341Z,24.38
2022-11-12T00:52:53.771Z,31.40
2022-11-12T00:55:21.309Z,28.13
2022-11-12T00:57:48.755Z,27.35
2022-11-12T01:00:18.957Z,30.15
2022-11-12T01:02:51.059Z,30.70
2022-11-12T01:05:20.302Z,31.33
2022-11-12T01:07:53.168Z,27.75
2022-11-12T01:10:23.349Z,29.90
2022-11-12T01:12:50.753Z,29.65
2022-11-12T01:15:18.158Z,30.25
2022-11-12T01:17:45.496Z,28.48
2022-11-12T01:20:12.898Z,28.23
2022-11-12T01:22:40.219Z,28.98
2022-11-12T01:25:07.953Z,30.25
2022-11-12T01:27:35.347Z,31.55
2022-11-12T01:30:04.028Z,35.08
2022-11-12T01:32:35.975Z,32.88
2022-11-12T01:35:03.824Z,28.50
2022-11-12T01:37:31.357Z,38.00
2022-11-12T01:39:58.708Z,28.30
2022-11-12T01:42:31.687Z,26.73
2022-11-12T01:44:59.056Z,34.30
2022-11-12T01:47:31.620Z,28.45
2022-11-12T01:50:23.940Z,27.85
2022-11-12T01:53:05.485Z,29.20
2022-11-12T01:55:36.339Z,33.90
2022-11-12T01:58:12.410Z,23.05
2022-11-12T02:00:40.911Z,30.65
2022-11-12T02:03:22.067Z,45.70
2022-11-12T02:08:19.785Z,33.60
2022-11-12T02:10:47.138Z,34.92
2022-11-12T02:13:32.911Z,32.42
2022-11-12T02:16:00.498Z,30.42
2022-11-12T02:18:28.027Z,27.65
2022-11-12T02:20:58.633Z,27.58
2022-11-12T02:23:26.268Z,32.63
2022-11-12T02:25:54.830Z,27.52
2022-11-12T02:28:22.494Z,25.50
2022-11-12T02:30:50.301Z,27.52
2022-11-12T02:33:17.785Z,29.30
2022-11-12T02:35:45.270Z,28.38
2022-11-12T02:38:12.719Z,28.00
2022-11-12T02:40:40.083Z,28.10
2022-11-12T02:43:07.417Z,26.70
2022-11-12T02:45:35.044Z,24.67
2022-11-12T02:48:02.514Z,30.88
2022-11-12T02:50:29.869Z,25.23
2022-11-12T02:52:57.265Z,28.65
2022-11-12T02:55:24.923Z,30.50
2022-11-12T02:57:52.274Z,28.23
2022-11-12T03:00:19.683Z,26.88
2022-11-12T03:02:59.183Z,24.83
2022-11-12T03:05:28.445Z,25.05
2022-11-12T03:08:07.349Z,23.98
2022-11-12T03:10:38.389Z,31.45
2022-11-12T03:15:33.384Z,26.27
2022-11-12T03:18:00.921Z,26.73
2022-11-12T03:20:29.905Z,26.33
2022-11-12T03:23:00.120Z,26.50
2022-11-12T03:25:28.769Z,27.40
2022-11-12T03:28:11.616Z,25.23
2022-11-12T03:30:41.102Z,26.08
2022-11-12T03:33:10.422Z,28.60
2022-11-12T03:35:38.740Z,26.67
2022-11-12T03:38:07.431Z,26.05
2022-11-12T03:40:35.177Z,28.52
2022-11-12T03:43:02.585Z,23.08
2022-11-12T03:45:30.047Z,26.30
2022-11-12T03:47:58.460Z,29.67
2022-11-12T03:50:29.026Z,27.30
2022-11-12T03:53:00.314Z,24.58
2022-11-12T03:55:29.648Z,25.67
2022-11-12T03:57:58.007Z,31.27
2022-11-12T04:00:26.882Z,28.02
2022-11-12T04:02:55.058Z,26.65
2022-11-12T04:05:41.260Z,28.75
2022-11-12T04:08:32.647Z,24.17
2022-11-12T04:11:00.234Z,23.90
2022-11-12T04:13:27.676Z,26.30
2022-11-12T04:16:35.293Z,25.23
2022-11-12T04:19:22.599Z,26.85
2022-11-12T04:22:02.800Z,31.25
2022-11-12T04:25:00.206Z,23.70
2022-11-12T04:27:30.728Z,26.15
2022-11-12T04:30:16.687Z,24.92
2022-11-12T04:32:54.790Z,29.98
2022-11-12T04:35:24.143Z,28.40
2022-11-12T04:37:51.688Z,27.25
2022-11-12T04:40:47.257Z,25.35
2022-11-12T04:43:35.890Z,27.02
2022-11-12T04:46:05.062Z,27.48
2022-11-12T04:48:32.623Z,26.27
2022-11-12T04:51:28.843Z,29.13
2022-11-12T04:53:56.165Z,29.38
2022-11-12T04:56:23.553Z,27.95
2022-11-12T04:58:50.987Z,29.70
2022-11-12T05:01:18.393Z,25.38
2022-11-12T05:03:45.822Z,24.02
2022-11-12T05:06:32.046Z,27.38
2022-11-12T05:08:59.448Z,28.38
2022-11-12T05:11:26.873Z,31.23
2022-11-12T05:13:54.207Z,33.83
2022-11-12T05:16:21.630Z,25.23
2022-11-12T05:18:49.009Z,25.98
2022-11-12T05:21:40.609Z,28.30
2022-11-12T05:24:27.423Z,30.23
2022-11-12T05:26:58.121Z,25.17
2022-11-12T05:29:25.546Z,28.55
2022-11-12T05:31:52.988Z,27.80
2022-11-12T05:34:23.010Z,26.92
2022-11-12T05:36:51.932Z,29.07
2022-11-12T05:39:19.556Z,30.70
2022-11-12T05:42:11.409Z,26.92
2022-11-12T05:44:34.480Z,25.65
2022-11-12T05:47:01.983Z,29.65
2022-11-12T05:49:29.391Z,29.25
2022-11-12T05:51:56.851Z,27.45
2022-11-12T05:54:25.064Z,27.27
2022-11-12T05:56:53.824Z,28.90
2022-11-12T05:59:22.384Z,27.55
2022-11-12T06:01:49.864Z,27.45
2022-11-12T06:04:17.714Z,33.00
2022-11-12T06:06:45.280Z,28.35
2022-11-12T06:09:12.832Z,33.67
2022-11-12T06:11:40.331Z,32.00
2022-11-12T06:14:07.769Z,26.05
2022-11-12T06:16:35.215Z,29.08
2022-11-12T06:19:02.770Z,27.27
2022-11-12T06:21:30.245Z,26.73
2022-11-12T06:23:59.768Z,30.83
2022-11-12T06:26:29.588Z,33.17
2022-11-12T06:28:57.145Z,32.53
2022-11-12T06:31:24.572Z,30.20
2022-11-12T06:33:52.057Z,28.58
2022-11-12T06:36:20.945Z,28.08
2022-11-12T06:38:48.636Z,27.35
2022-11-12T06:41:16.405Z,25.83
2022-11-12T06:43:44.116Z,23.52
2022-11-12T06:46:14.927Z,28.05
2022-11-12T06:48:42.517Z,26.80
2022-11-12T06:51:18.630Z,28.27
2022-11-12T06:53:46.653Z,20.05
2022-11-12T06:56:15.248Z,28.88
2022-11-12T06:58:43.206Z,28.38
2022-11-12T07:01:14.519Z,33.30
2022-11-12T07:03:43.328Z,32.13
2022-11-12T07:06:15.318Z,29.92
2022-11-12T07:08:48.882Z,27.90
2022-11-12T07:11:18.848Z,22.33
2022-11-12T07:13:47.127Z,23.25
2022-11-12T07:16:18.857Z,25.40
2022-11-12T07:18:47.660Z,24.55
2022-11-12T07:21:17.927Z,22.95
2022-11-12T07:23:46.439Z,25.47
2022-11-12T07:26:18.321Z,26.13
2022-11-12T07:28:46.351Z,24.05
2022-11-12T07:31:15.437Z,26.33
2022-11-12T07:33:43.865Z,25.23
2022-11-12T07:36:14.016Z,27.27
2022-11-12T07:38:42.397Z,25.80
2022-11-12T07:41:14.855Z,23.45
2022-11-12T07:43:44.128Z,23.05
2022-11-12T07:46:19.313Z,28.60
2022-11-12T07:48:47.298Z,31.30
2022-11-12T07:51:17.563Z,26.52
2022-11-12T07:53:46.823Z,27.70
2022-11-12T07:56:17.830Z,27.40
2022-11-12T07:58:46.147Z,25.08
2022-11-12T08:01:16.604Z,25.90
2022-11-12T08:03:44.025Z,25.30
2022-11-12T08:06:11.397Z,29.33
2022-11-12T08:08:38.752Z,27.00
2022-11-12T08:11:06.197Z,27.92
2022-11-12T08:13:33.530Z,24.20
2022-11-12T08:16:00.975Z,26.23
2022-11-12T08:18:29.116Z,27.33
2022-11-12T08:21:04.230Z,31.15
2022-11-12T08:23:31.748Z,28.63
2022-11-12T08:26:03.485Z,28.77
2022-11-12T08:28:32.038Z,25.17
2022-11-12T08:31:05.905Z,25.05
2022-11-12T08:33:34.202Z,26.00
2022-11-12T08:36:06.448Z,30.70
2022-11-12T08:38:34.201Z,26.73
2022-11-12T08:41:06.982Z,28.60
2022-11-12T08:43:34.343Z,26.80
2022-11-12T08:46:02.839Z,25.50
2022-11-12T08:48:31.822Z,28.85
2022-11-12T08:51:02.504Z,28.25
2022-11-12T08:53:29.921Z,28.48
2022-11-12T08:55:57.528Z,31.15
2022-11-12T08:58:26.068Z,33.03
2022-11-12T09:00:54.646Z,32.03
2022-11-12T09:03:24.748Z,26.15
2022-11-12T09:05:52.734Z,28.77
2022-11-12T09:08:23.265Z,26.67
2022-11-12T09:10:51.855Z,31.27
2022-11-12T09:13:19.759Z,29.27
2022-11-12T09:15:47.615Z,25.45
2022-11-12T09:18:17.099Z,26.88
2022-11-12T09:20:45.526Z,32.63
2022-11-12T09:23:15.333Z,29.55
2022-11-12T09:25:43.752Z,26.48
2022-11-12T09:28:14.220Z,28.20
2022-11-12T09:30:47.650Z,29.15
2022-11-12T09:33:26.548Z,26.73
2022-11-12T09:35:55.327Z,25.75
2022-11-12T09:38:23.395Z,31.38
2022-11-12T09:40:53.480Z,28.88
2022-11-12T09:43:33.779Z,24.95
2022-11-12T09:46:33.674Z,31.73
2022-11-12T09:49:36.258Z,26.50
2022-11-12T09:52:10.609Z,30.45
2022-11-12T09:54:38.176Z,28.15
2022-11-12T09:57:10.229Z,30.27
2022-11-12T09:59:41.350Z,23.92
2022-11-12T10:05:23.467Z,26.70
2022-11-12T10:07:59.730Z,25.63
2022-11-12T10:10:29.679Z,26.17
2022-11-12T10:13:17.541Z,24.13
2022-11-12T10:16:32.403Z,26.08
2022-11-12T10:19:19.986Z,25.02
2022-11-12T10:21:58.462Z,26.85
2022-11-12T10:24:29.663Z,28.98
2022-11-12T10:26:58.063Z,24.70
2022-11-12T10:29:48.096Z,29.00
2022-11-12T10:32:17.154Z,26.23
2022-11-12T10:38:14.661Z,23.25
2022-11-12T10:40:42.895Z,21.80
2022-11-12T10:43:16.041Z,24.50
2022-11-12T10:45:48.139Z,23.80
2022-11-12T10:48:34.536Z,22.58
2022-11-12T10:51:04.232Z,23.52
2022-11-12T10:53:37.800Z,20.60
2022-11-12T10:56:23.216Z,22.83
2022-11-12T10:59:11.102Z,21.40
2022-11-12T11:01:44.454Z,22.08
2022-11-12T11:04:32.864Z,20.70
2022-11-12T11:07:04.719Z,21.88
2022-11-12T11:09:32.561Z,24.55
2022-11-12T11:12:00.701Z,22.50
2022-11-12T11:14:28.119Z,24.77
2022-11-12T11:17:08.623Z,24.92
2022-11-12T11:19:42.297Z,21.02
2022-11-12T11:22:25.020Z,23.55
2022-11-12T11:24:57.012Z,25.08
2022-11-12T11:27:36.464Z,25.85
2022-11-12T11:30:11.568Z,23.95
2022-11-12T11:33:03.802Z,24.00
2022-11-12T11:35:40.455Z,23.90
2022-11-12T11:38:26.417Z,22.90
2022-11-12T11:40:56.952Z,25.92
2022-11-12T11:43:59.369Z,27.42
2022-11-12T11:46:53.343Z,76.55
2022-11-12T11:49:36.040Z,49.67
2022-11-12T11:52:35.672Z,38.47
2022-11-12T11:55:17.689Z,37.17
2022-11-12T11:58:00.841Z,31.67
2022-11-12T12:00:47.705Z,34.45
2022-11-12T12:03:21.862Z,38.50
2022-11-12T12:06:01.092Z,36.35
2022-11-12T12:09:04.583Z,34.13
2022-11-12T12:11:56.450Z,38.25
2022-11-12T12:14:43.574Z,38.25
2022-11-12T12:17:36.879Z,44.13
2022-11-12T12:20:33.759Z,47.28
2022-11-12T12:23:10.988Z,45.50
2022-11-12T12:25:42.245Z,47.33
2022-11-12T12:28:47.420Z,41.65
2022-11-12T12:31:20.958Z,38.58
2022-11-12T12:34:00.149Z,38.78
2022-11-12T12:36:37.273Z,47.88
2022-11-12T12:39:12.320Z,44.05
2022-11-12T12:41:45.638Z,40.10
2022-11-12T12:44:13.012Z,38.25
2022-11-12T12:46:45.607Z,42.65
2022-11-12T12:49:19.286Z,38.90
2022-11-12T12:51:50.301Z,44.22
2022-11-12T12:54:35.667Z,41.45
2022-11-12T12:57:36.634Z,38.22
2022-11-12T13:00:33.499Z,31.98
2022-11-12T13:03:01.043Z,45.03
2022-11-12T13:05:40.530Z,42.65
2022-11-12T13:08:14.195Z,40.90
2022-11-12T13:10:41.687Z,40.75
2022-11-12T13:13:18.470Z,45.58
2022-11-12T13:15:49.598Z,43.30
2022-11-12T13:21:21.665Z,46.38
2022-11-12T13:24:08.554Z,41.50
2022-11-12T13:26:56.134Z,45.85
2022-11-12T13:29:28.730Z,39.67
2022-11-12T13:32:31.493Z,40.05
2022-11-12T13:35:17.813Z,43.33
2022-11-12T13:38:17.129Z,41.10
2022-11-12T13:40:53.234Z,36.90
2022-11-12T13:43:49.700Z,37.85
2022-11-12T13:46:29.566Z,35.00
2022-11-12T13:49:03.589Z,38.05
2022-11-12T13:51:43.077Z,35.38
2022-11-12T13:54:29.000Z,41.00
2022-11-12T13:56:56.870Z,41.20
2022-11-12T13:59:26.073Z,35.15
2022-11-12T14:01:55.771Z,46.05
2022-11-12T14:04:24.764Z,28.42
2022-11-12T14:07:07.030Z,33.38
2022-11-12T14:09:40.379Z,32.17
2022-11-12T14:12:22.792Z,38.05
2022-11-12T14:14:56.405Z,38.78
2022-11-12T14:17:45.004Z,41.05
2022-11-12T14:20:33.626Z,34.30
2022-11-12T14:23:11.413Z,37.88
2022-11-12T14:25:56.499Z,30.13
2022-11-12T14:28:33.366Z,40.90
2022-11-12T14:31:03.032Z,35.33
2022-11-12T14:33:32.784Z,33.65
2022-11-12T14:36:18.525Z,39.72
2022-11-12T14:38:53.367Z,35.50
2022-11-12T14:41:22.764Z,40.80
2022-11-12T14:44:12.102Z,41.95
2022-11-12T14:46:50.459Z,48.13
2022-11-12T14:49:43.883Z,45.05
2022-11-12T14:52:22.644Z,45.25
2022-11-12T14:54:57.704Z,42.78
2022-11-12T14:57:30.560Z,48.83
2022-11-12T15:00:00.154Z,41.20
2022-11-12T15:02:53.775Z,37.80
2022-11-12T15:05:24.284Z,38.95
2022-11-12T15:08:01.151Z,63.92
2022-11-12T15:10:47.249Z,37.22
2022-11-12T15:13:18.379Z,44.30
2022-11-12T15:18:33.902Z,44.35
2022-11-12T15:21:12.198Z,37.95
2022-11-12T15:23:49.673Z,37.85
2022-11-12T15:26:32.031Z,42.08
2022-11-12T15:29:22.673Z,29.55
2022-11-12T15:31:54.641Z,31.63
2022-11-12T15:34:28.138Z,33.45
2022-11-12T15:37:08.524Z,32.67
2022-11-12T15:39:49.211Z,30.05
2022-11-12T15:42:31.197Z,34.50
2022-11-12T15:45:02.315Z,21.95
2022-11-12T15:47:29.995Z,29.00
2022-11-12T15:50:01.401Z,19.58
2022-11-12T15:52:29.258Z,22.33
2022-11-12T15:54:56.752Z,18.75
2022-11-12T15:57:27.399Z,15.35
2022-11-12T16:00:10.837Z,16.90
2022-11-12T16:02:39.446Z,16.23
2022-11-12T16:05:13.169Z,10.15
2022-11-12T16:07:48.554Z,11.85
2022-11-12T16:10:18.398Z,13.88
2022-11-12T16:12:48.215Z,12.55
2022-11-12T16:15:20.715Z,11.60
2022-11-12T16:17:52.430Z,10.63
2022-11-12T16:20:31.139Z,14.10
2022-11-12T16:23:00.508Z,13.00
2022-11-12T16:25:42.409Z,13.75
2022-11-12T16:28:18.296Z,11.90
2022-11-12T16:30:50.825Z,14.60
2022-11-12T16:33:23.065Z,16.92
2022-11-12T16:35:50.946Z,14.68
2022-11-12T16:38:19.369Z,15.13
2022-11-12T16:40:46.922Z,11.82
2022-11-12T16:43:14.358Z,10.23
2022-11-12T16:45:43.773Z,13.10
2022-11-12T16:48:15.947Z,11.73
2022-11-12T16:50:43.555Z,12.93
2022-11-12T16:53:11.001Z,13.55
2022-11-12T16:55:38.533Z,10.95
2022-11-12T16:58:06.087Z,14.75
2022-11-12T17:00:35.992Z,17.67
2022-11-12T17:03:05.053Z,14.77
2022-11-12T17:05:32.407Z,8.48
2022-11-12T17:07:59.803Z,8.73
2022-11-12T17:10:27.170Z,8.57
2022-11-12T17:12:54.682Z,10.07
2022-11-12T17:15:22.101Z,7.55
2022-11-12T17:17:49.608Z,9.90
2022-11-12T17:20:17.114Z,8.50
2022-11-12T17:22:45.079Z,11.27
2022-11-12T17:25:12.530Z,9.70
2022-11-12T17:27:39.890Z,10.52
2022-11-12T17:30:07.641Z,9.25
2022-11-12T17:32:35.016Z,10.30
2022-11-12T17:35:02.402Z,8.60
2022-11-12T17:37:30.036Z,15.52
2022-11-12T17:39:57.452Z,26.35
2022-11-12T17:42:24.819Z,15.30
2022-11-12T17:44:52.223Z,12.80
2022-11-12T17:47:19.625Z,10.07
2022-11-12T17:49:47.080Z,13.93
2022-11-12T17:52:14.575Z,10.35
2022-11-12T17:54:42.394Z,15.02
2022-11-12T17:57:10.492Z,13.20
2022-11-12T17:59:37.934Z,17.92
2022-11-12T18:02:05.281Z,17.80
2022-11-12T18:04:32.649Z,17.58
2022-11-12T18:07:00.156Z,18.73
2022-11-12T18:09:27.558Z,27.38
2022-11-12T18:11:56.587Z,24.60
2022-11-12T18:14:26.170Z,14.82
2022-11-12T18:16:53.530Z,17.00
2022-11-12T18:19:21.085Z,12.88
2022-11-12T18:21:48.572Z,14.63
2022-11-12T18:24:17.149Z,16.80
2022-11-12T18:26:44.584Z,13.05
2022-11-12T18:29:12.845Z,16.42
2022-11-12T18:31:40.805Z,14.63
2022-11-12T18:34:13.644Z,12.23
2022-11-12T18:36:41.104Z,17.92
2022-11-12T18:39:08.690Z,18.80
2022-11-12T18:41:36.232Z,12.55
2022-11-12T18:44:03.908Z,29.85
2022-11-12T18:46:31.312Z,28.55
2022-11-12T18:48:58.686Z,15.90
2022-11-12T18:51:26.082Z,10.25
2022-11-12T18:53:53.642Z,12.35
2022-11-12T18:56:22.135Z,8.57
2022-11-12T18:58:49.813Z,10.35
2022-11-12T19:01:22.341Z,10.88
2022-11-12T19:03:54.273Z,9.02
2022-11-12T19:06:22.288Z,7.45
2022-11-12T19:08:49.854Z,10.05
2022-11-12T19:11:19.275Z,11.77
2022-11-12T19:13:54.156Z,16.15
2022-11-12T19:16:23.533Z,14.73
2022-11-12T19:18:52.347Z,8.77
2022-11-12T19:21:25.257Z,11.65
2022-11-12T19:23:56.517Z,10.10
2022-11-12T19:26:24.715Z,12.02
2022-11-12T19:28:52.462Z,8.38
2022-11-12T19:31:22.352Z,10.13
2022-11-12T19:33:50.518Z,11.70
2022-11-12T19:36:21.116Z,11.68
2022-11-12T19:38:59.528Z,13.05
2022-11-12T19:41:26.948Z,17.30
2022-11-12T19:43:54.561Z,11.38
2022-11-12T19:46:22.908Z,11.70
2022-11-12T19:48:51.524Z,10.13
2022-11-12T19:51:18.920Z,11.98
2022-11-12T19:53:47.745Z,12.20
2022-11-12T19:56:22.098Z,11.77
2022-11-12T19:58:49.914Z,15.18
2022-11-12T20:01:19.044Z,14.98
2022-11-12T20:03:46.893Z,11.68
2022-11-12T20:06:21.837Z,11.05
2022-11-12T20:09:03.728Z,11.00
2022-11-12T20:11:31.381Z,11.82
2022-11-12T20:13:58.748Z,14.63
2022-11-12T20:16:26.315Z,13.73
2022-11-12T20:18:55.713Z,14.57
2022-11-12T20:21:24.222Z,15.45
2022-11-12T20:23:51.729Z,18.20
2022-11-12T20:26:19.467Z,19.23
2022-11-12T20:28:46.860Z,12.75
2022-11-12T20:31:20.923Z,13.30
2022-11-12T20:33:50.093Z,16.73
2022-11-12T20:36:22.609Z,21.38
2022-11-12T20:38:50.825Z,22.02
2022-11-12T20:41:20.170Z,13.73
2022-11-12T20:43:48.226Z,12.90
2022-11-12T20:46:15.577Z,15.75
2022-11-12T20:48:43.854Z,14.57
2022-11-12T20:51:24.207Z,15.57
2022-11-12T20:54:00.029Z,12.10
2022-11-12T20:56:29.667Z,12.05
2022-11-12T20:58:58.472Z,22.63
2022-11-12T21:01:27.832Z,15.07
2022-11-12T21:03:55.596Z,15.10
2022-11-12T21:06:26.229Z,17.42
2022-11-12T21:08:54.037Z,19.13
2022-11-12T21:11:22.881Z,24.45
2022-11-12T21:13:50.409Z,22.73
2022-11-12T21:16:18.006Z,16.67
2022-11-12T21:18:45.555Z,16.27
2022-11-12T21:21:15.398Z,17.52
2022-11-12T21:23:44.242Z,20.48
2022-11-12T21:26:16.684Z,18.20
2022-11-12T21:28:55.447Z,15.63
2022-11-12T21:31:28.364Z,16.15
2022-11-12T21:33:58.794Z,14.82
2022-11-12T21:36:34.536Z,17.30
2022-11-12T21:39:04.302Z,16.45
2022-11-12T21:41:32.249Z,24.33
2022-11-12T21:43:59.914Z,15.20
2022-11-12T21:46:31.966Z,19.90
2022-11-12T21:48:59.435Z,26.42
2022-11-12T21:51:29.618Z,18.88
2022-11-12T21:54:03.503Z,22.93
2022-11-12T21:56:33.065Z,18.75
2022-11-12T21:59:01.643Z,22.35
2022-11-12T22:01:31.468Z,17.67
2022-11-12T22:03:59.984Z,19.10
2022-11-12T22:06:29.745Z,16.98
2022-11-12T22:08:58.183Z,17.70
2022-11-12T22:11:26.702Z,17.45
2022-11-12T22:13:54.368Z,15.63
2022-11-12T22:16:24.327Z,22.58
2022-11-12T22:18:54.158Z,25.08
2022-11-12T22:21:32.990Z,22.52
2022-11-12T22:24:02.942Z,18.77
2022-11-12T22:26:30.626Z,18.10
2022-11-12T22:28:59.237Z,19.05
2022-11-12T22:31:32.542Z,22.98
2022-11-12T22:34:01.509Z,24.02
2022-11-12T22:36:31.257Z,23.77
2022-11-12T22:38:58.934Z,23.83
2022-11-12T22:41:31.550Z,24.83
2022-11-12T22:44:01.568Z,23.30
2022-11-12T22:46:33.749Z,22.92
2022-11-12T22:49:02.103Z,20.90
2022-11-12T22:51:31.800Z,20.80
2022-11-12T22:54:01.769Z,21.00
2022-11-12T22:56:29.888Z,20.73
2022-11-12T22:58:58.417Z,16.67
2022-11-12T23:01:34.239Z,16.27
2022-11-12T23:04:05.007Z,18.52
2022-11-12T23:06:32.438Z,15.00
2022-11-12T23:09:01.045Z,21.40
2022-11-12T23:11:29.188Z,21.20
2022-11-12T23:13:56.663Z,17.40
2022-11-12T23:16:27.533Z,17.75
2022-11-12T23:18:55.331Z,23.10
2022-11-12T23:21:25.658Z,18.45
2022-11-12T23:23:53.133Z,20.38
2022-11-12T23:26:24.323Z,21.20
2022-11-12T23:31:25.278Z,17.10
2022-11-12T23:33:54.631Z,20.17
2022-11-12T23:36:24.266Z,19.65
2022-11-12T23:38:51.774Z,15.75
2022-11-12T23:41:22.901Z,23.05
2022-11-12T23:46:18.320Z,19.33
2022-11-12T23:48:45.985Z,19.25
2022-11-12T23:51:16.123Z,20.67
2022-11-12T23:53:43.540Z,20.27
2022-11-12T23:56:13.166Z,18.98
2022-11-12T23:58:42.082Z,22.73
